sensor_id;sensor_type;location;lat;lon;timestamp;pressure;altitude;pressure_sealevel;temperature;humidity
59106;BME280;44891;50.204;8.132;2023-02-20T00:02:46;99277.06;;;5.94;100.00
59106;BME280;44891;50.204;8.132;2023-02-20T00:06:49;99266.53;;;5.87;100.00
59106;BME280;44891;50.204;8.132;2023-02-20T00:10:51;99263.91;;;5.87;100.00
59106;BME280;44891;50.204;8.132;2023-02-20T00:14:53;99246.97;;;5.77;100.00
59106;BME280;44891;50.204;8.132;2023-02-20T00:18:55;99248.56;;;5.78;100.00
59106;BME280;44891;50.204;8.132;2023-02-20T00:22:58;99252.78;;;5.79;100.00
59106;BME280;44891;50.204;8.132;2023-02-20T00:27:00;99255.94;;;5.74;100.00
59106;BME280;44891;50.204;8.132;2023-02-20T00:31:02;99262.69;;;5.54;100.00
59106;BME280;44891;50.204;8.132;2023-02-20T00:35:04;99257.31;;;5.55;99.87
59106;BME280;44891;50.204;8.132;2023-02-20T00:39:09;99257.56;;;5.45;99.99
59106;BME280;44891;50.204;8.132;2023-02-20T00:43:12;99263.72;;;5.15;100.00
59106;BME280;44891;50.204;8.132;2023-02-20T00:47:14;99269.16;;;4.90;100.00
59106;BME280;44891;50.204;8.132;2023-02-20T00:51:16;99248.97;;;4.93;100.00
59106;BME280;44891;50.204;8.132;2023-02-20T00:55:21;99243.59;;;4.71;100.00
59106;BME280;44891;50.204;8.132;2023-02-20T00:59:24;99247.31;;;4.54;100.00
59106;BME280;44891;50.204;8.132;2023-02-20T01:03:26;99237.03;;;4.38;100.00
59106;BME280;44891;50.204;8.132;2023-02-20T01:07:28;99242.16;;;4.23;100.00
59106;BME280;44891;50.204;8.132;2023-02-20T01:11:31;99226.16;;;4.34;100.00
59106;BME280;44891;50.204;8.132;2023-02-20T01:15:33;99234.88;;;4.41;100.00
59106;BME280;44891;50.204;8.132;2023-02-20T01:19:35;99234.63;;;4.28;100.00
59106;BME280;44891;50.204;8.132;2023-02-20T01:23:37;99233.53;;;4.22;100.00
59106;BME280;44891;50.204;8.132;2023-02-20T01:27:40;99237.78;;;4.23;100.00
59106;BME280;44891;50.204;8.132;2023-02-20T01:31:45;99238.72;;;4.22;100.00
59106;BME280;44891;50.204;8.132;2023-02-20T01:35:49;99233.66;;;4.29;100.00
59106;BME280;44891;50.204;8.132;2023-02-20T01:39:51;99226.59;;;4.15;99.44
59106;BME280;44891;50.204;8.132;2023-02-20T01:43:54;99224.91;;;3.99;100.00
59106;BME280;44891;50.204;8.132;2023-02-20T01:47:56;99214.84;;;3.96;100.00
59106;BME280;44891;50.204;8.132;2023-02-20T01:52:00;99223.97;;;3.92;99.98
59106;BME280;44891;50.204;8.132;2023-02-20T01:56:04;99198.97;;;3.91;100.00
59106;BME280;44891;50.204;8.132;2023-02-20T02:00:11;99199.13;;;3.89;100.00
59106;BME280;44891;50.204;8.132;2023-02-20T02:04:17;99189.56;;;3.90;100.00
59106;BME280;44891;50.204;8.132;2023-02-20T02:08:22;99181.19;;;3.71;100.00
59106;BME280;44891;50.204;8.132;2023-02-20T02:12:24;99175.66;;;3.74;100.00
59106;BME280;44891;50.204;8.132;2023-02-20T02:16:28;99179.59;;;3.70;100.00
59106;BME280;44891;50.204;8.132;2023-02-20T02:25:12;99184.78;;;3.62;100.00
59106;BME280;44891;50.204;8.132;2023-02-20T02:29:23;99185.41;;;3.72;100.00
59106;BME280;44891;50.204;8.132;2023-02-20T02:33:39;99193.84;;;3.74;100.00
59106;BME280;44891;50.204;8.132;2023-02-20T02:37:47;99195.03;;;3.64;100.00
59106;BME280;44891;50.204;8.132;2023-02-20T02:41:52;99185.41;;;3.72;100.00
59106;BME280;44891;50.204;8.132;2023-02-20T02:45:58;99188.09;;;3.87;100.00
59106;BME280;44891;50.204;8.132;2023-02-20T02:50:03;99175.91;;;3.88;100.00
59106;BME280;44891;50.204;8.132;2023-02-20T02:54:08;99166.78;;;3.92;100.00
59106;BME280;44891;50.204;8.132;2023-02-20T02:58:10;99169.00;;;4.03;100.00
59106;BME280;44891;50.204;8.132;2023-02-20T03:02:14;99164.44;;;4.05;100.00
59106;BME280;44891;50.204;8.132;2023-02-20T03:06:19;99169.28;;;4.08;100.00
59106;BME280;44891;50.204;8.132;2023-02-20T03:10:26;99171.88;;;4.08;100.00
59106;BME280;44891;50.204;8.132;2023-02-20T03:14:32;99158.44;;;4.27;100.00
59106;BME280;44891;50.204;8.132;2023-02-20T03:18:54;99171.66;;;4.41;100.00
59106;BME280;44891;50.204;8.132;2023-02-20T03:22:58;99171.56;;;4.49;100.00
59106;BME280;44891;50.204;8.132;2023-02-20T03:27:03;99172.97;;;4.59;100.00
59106;BME280;44891;50.204;8.132;2023-02-20T03:31:07;99173.78;;;4.60;100.00
59106;BME280;44891;50.204;8.132;2023-02-20T03:35:12;99164.47;;;4.66;100.00
59106;BME280;44891;50.204;8.132;2023-02-20T03:39:33;99167.75;;;4.59;100.00
59106;BME280;44891;50.204;8.132;2023-02-20T03:43:56;99171.97;;;4.23;100.00
59106;BME280;44891;50.204;8.132;2023-02-20T03:48:01;99159.44;;;4.41;100.00
59106;BME280;44891;50.204;8.132;2023-02-20T03:52:06;99159.88;;;4.30;100.00
59106;BME280;44891;50.204;8.132;2023-02-20T03:56:15;99147.81;;;4.37;100.00
59106;BME280;44891;50.204;8.132;2023-02-20T04:00:19;99130.50;;;4.44;100.00
59106;BME280;44891;50.204;8.132;2023-02-20T04:04:27;99134.69;;;4.30;100.00
59106;BME280;44891;50.204;8.132;2023-02-20T04:08:32;99137.72;;;4.34;100.00
59106;BME280;44891;50.204;8.132;2023-02-20T04:12:38;99134.38;;;4.02;100.00
59106;BME280;44891;50.204;8.132;2023-02-20T04:16:47;99145.84;;;3.93;100.00
59106;BME280;44891;50.204;8.132;2023-02-20T04:20:51;99144.28;;;3.84;100.00
59106;BME280;44891;50.204;8.132;2023-02-20T04:24:59;99146.06;;;3.84;100.00
59106;BME280;44891;50.204;8.132;2023-02-20T04:29:04;99139.19;;;3.91;100.00
59106;BME280;44891;50.204;8.132;2023-02-20T04:33:10;99131.50;;;3.74;100.00
59106;BME280;44891;50.204;8.132;2023-02-20T04:37:13;99135.03;;;4.04;100.00
59106;BME280;44891;50.204;8.132;2023-02-20T04:41:16;99135.34;;;4.09;100.00
59106;BME280;44891;50.204;8.132;2023-02-20T04:45:18;99138.38;;;4.13;100.00
59106;BME280;44891;50.204;8.132;2023-02-20T04:49:22;99132.50;;;4.19;100.00
59106;BME280;44891;50.204;8.132;2023-02-20T04:53:27;99139.31;;;4.20;100.00
59106;BME280;44891;50.204;8.132;2023-02-20T04:57:29;99150.09;;;3.86;100.00
59106;BME280;44891;50.204;8.132;2023-02-20T05:01:31;99147.75;;;3.76;100.00
59106;BME280;44891;50.204;8.132;2023-02-20T05:05:34;99156.81;;;4.03;100.00
59106;BME280;44891;50.204;8.132;2023-02-20T05:09:36;99141.13;;;4.34;100.00
59106;BME280;44891;50.204;8.132;2023-02-20T05:13:38;99142.53;;;4.45;100.00
59106;BME280;44891;50.204;8.132;2023-02-20T05:17:40;99126.03;;;4.53;100.00
59106;BME280;44891;50.204;8.132;2023-02-20T05:21:43;99124.72;;;4.57;100.00
59106;BME280;44891;50.204;8.132;2023-02-20T05:26:07;99130.72;;;4.57;100.00
59106;BME280;44891;50.204;8.132;2023-02-20T05:30:09;99120.22;;;4.66;100.00
59106;BME280;44891;50.204;8.132;2023-02-20T05:34:11;99123.53;;;4.59;99.84
59106;BME280;44891;50.204;8.132;2023-02-20T05:38:17;99123.44;;;4.68;100.00
59106;BME280;44891;50.204;8.132;2023-02-20T05:42:18;99112.34;;;4.74;100.00
59106;BME280;44891;50.204;8.132;2023-02-20T05:46:22;99119.25;;;4.81;100.00
59106;BME280;44891;50.204;8.132;2023-02-20T05:50:24;99117.09;;;4.70;100.00
59106;BME280;44891;50.204;8.132;2023-02-20T05:54:27;99113.69;;;4.84;100.00
59106;BME280;44891;50.204;8.132;2023-02-20T05:58:29;99107.59;;;4.92;100.00
59106;BME280;44891;50.204;8.132;2023-02-20T06:02:31;99115.94;;;4.87;100.00
59106;BME280;44891;50.204;8.132;2023-02-20T06:06:35;99101.66;;;4.98;100.00
59106;BME280;44891;50.204;8.132;2023-02-20T06:10:38;99098.00;;;4.93;100.00
59106;BME280;44891;50.204;8.132;2023-02-20T06:14:40;99090.63;;;5.11;100.00
59106;BME280;44891;50.204;8.132;2023-02-20T06:18:42;99093.84;;;5.13;100.00
59106;BME280;44891;50.204;8.132;2023-02-20T06:22:43;99092.16;;;5.05;100.00
59106;BME280;44891;50.204;8.132;2023-02-20T06:26:47;99093.03;;;5.12;100.00
59106;BME280;44891;50.204;8.132;2023-02-20T06:30:49;99099.06;;;5.13;100.00
59106;BME280;44891;50.204;8.132;2023-02-20T06:34:51;99105.69;;;5.01;100.00
59106;BME280;44891;50.204;8.132;2023-02-20T06:38:53;99109.56;;;5.05;100.00
59106;BME280;44891;50.204;8.132;2023-02-20T06:42:56;99108.56;;;5.06;100.00
59106;BME280;44891;50.204;8.132;2023-02-20T06:46:58;99119.38;;;5.03;100.00
59106;BME280;44891;50.204;8.132;2023-02-20T06:51:00;99119.97;;;5.05;100.00
59106;BME280;44891;50.204;8.132;2023-02-20T06:55:02;99115.06;;;5.10;100.00
59106;BME280;44891;50.204;8.132;2023-02-20T06:59:05;99116.13;;;5.15;100.00
59106;BME280;44891;50.204;8.132;2023-02-20T07:03:08;99121.75;;;5.19;100.00
59106;BME280;44891;50.204;8.132;2023-02-20T07:07:10;99117.56;;;5.18;100.00
59106;BME280;44891;50.204;8.132;2023-02-20T07:11:12;99120.69;;;5.13;100.00
59106;BME280;44891;50.204;8.132;2023-02-20T07:15:16;99112.88;;;5.28;100.00
59106;BME280;44891;50.204;8.132;2023-02-20T07:19:17;99114.66;;;5.42;100.00
59106;BME280;44891;50.204;8.132;2023-02-20T07:23:20;99101.50;;;5.51;100.00
59106;BME280;44891;50.204;8.132;2023-02-20T07:27:22;99094.09;;;5.69;100.00
59106;BME280;44891;50.204;8.132;2023-02-20T07:31:25;99088.44;;;5.87;100.00
59106;BME280;44891;50.204;8.132;2023-02-20T07:35:27;99082.97;;;5.96;99.76
59106;BME280;44891;50.204;8.132;2023-02-20T07:39:35;99091.53;;;6.12;99.09
59106;BME280;44891;50.204;8.132;2023-02-20T07:43:37;99071.56;;;6.25;98.65
59106;BME280;44891;50.204;8.132;2023-02-20T07:47:41;99076.34;;;6.43;98.58
59106;BME280;44891;50.204;8.132;2023-02-20T07:51:43;99068.41;;;6.58;96.98
59106;BME280;44891;50.204;8.132;2023-02-20T07:55:45;99066.66;;;6.72;97.53
59106;BME280;44891;50.204;8.132;2023-02-20T07:59:46;99053.84;;;6.77;95.55
59106;BME280;44891;50.204;8.132;2023-02-20T08:03:50;99050.84;;;6.80;95.21
59106;BME280;44891;50.204;8.132;2023-02-20T08:07:52;99049.09;;;6.87;95.15
59106;BME280;44891;50.204;8.132;2023-02-20T08:11:54;99048.97;;;7.02;94.88
59106;BME280;44891;50.204;8.132;2023-02-20T08:15:56;99037.75;;;7.15;92.91
59106;BME280;44891;50.204;8.132;2023-02-20T08:19:59;99030.75;;;7.22;92.94
59106;BME280;44891;50.204;8.132;2023-02-20T08:24:01;99031.81;;;7.34;92.77
59106;BME280;44891;50.204;8.132;2023-02-20T08:28:03;99032.22;;;7.51;90.65
59106;BME280;44891;50.204;8.132;2023-02-20T08:32:05;99018.97;;;7.66;89.84
59106;BME280;44891;50.204;8.132;2023-02-20T08:36:08;99030.28;;;7.79;90.65
59106;BME280;44891;50.204;8.132;2023-02-20T08:40:10;99024.06;;;7.94;90.26
59106;BME280;44891;50.204;8.132;2023-02-20T08:44:13;99021.81;;;7.97;86.40
59106;BME280;44891;50.204;8.132;2023-02-20T08:48:15;99019.00;;;8.05;86.84
59106;BME280;44891;50.204;8.132;2023-02-20T08:52:18;99024.84;;;8.14;85.22
59106;BME280;44891;50.204;8.132;2023-02-20T08:56:20;99024.84;;;8.21;84.52
59106;BME280;44891;50.204;8.132;2023-02-20T09:00:22;99033.28;;;8.29;83.96
59106;BME280;44891;50.204;8.132;2023-02-20T09:04:24;99038.31;;;8.44;84.60
59106;BME280;44891;50.204;8.132;2023-02-20T09:08:27;99033.31;;;8.42;81.58
59106;BME280;44891;50.204;8.132;2023-02-20T09:12:29;99035.09;;;8.49;82.04
59106;BME280;44891;50.204;8.132;2023-02-20T09:16:31;99034.28;;;8.55;81.87
59106;BME280;44891;50.204;8.132;2023-02-20T09:20:33;99043.72;;;8.76;83.11
59106;BME280;44891;50.204;8.132;2023-02-20T09:24:37;99055.06;;;9.14;79.30
59106;BME280;44891;50.204;8.132;2023-02-20T09:28:39;99042.09;;;9.33;76.14
59106;BME280;44891;50.204;8.132;2023-02-20T09:32:40;99058.00;;;9.69;74.60
59106;BME280;44891;50.204;8.132;2023-02-20T09:36:42;99055.72;;;10.11;71.44
59106;BME280;44891;50.204;8.132;2023-02-20T09:40:47;99063.13;;;10.46;69.00
59106;BME280;44891;50.204;8.132;2023-02-20T09:44:53;99068.06;;;10.79;68.00
59106;BME280;44891;50.204;8.132;2023-02-20T09:48:59;99062.91;;;11.21;65.77
59106;BME280;44891;50.204;8.132;2023-02-20T09:53:04;99056.81;;;11.68;63.64
59106;BME280;44891;50.204;8.132;2023-02-20T09:57:11;99051.16;;;12.48;62.55
59106;BME280;44891;50.204;8.132;2023-02-20T10:01:14;99053.66;;;13.30;58.68
59106;BME280;44891;50.204;8.132;2023-02-20T10:05:20;99053.31;;;14.68;51.86
59106;BME280;44891;50.204;8.132;2023-02-20T10:09:22;99056.28;;;15.64;48.55
59106;BME280;44891;50.204;8.132;2023-02-20T10:13:28;99051.63;;;16.41;46.99
59106;BME280;44891;50.204;8.132;2023-02-20T10:17:37;99049.03;;;17.97;43.76
59106;BME280;44891;50.204;8.132;2023-02-20T10:21:48;99046.38;;;17.97;42.45
59106;BME280;44891;50.204;8.132;2023-02-20T10:25:53;99032.03;;;17.77;41.25
59106;BME280;44891;50.204;8.132;2023-02-20T10:29:57;99028.56;;;17.72;41.36
59106;BME280;44891;50.204;8.132;2023-02-20T10:34:03;99026.88;;;17.35;41.90
59106;BME280;44891;50.204;8.132;2023-02-20T10:38:07;99029.84;;;17.64;40.75
59106;BME280;44891;50.204;8.132;2023-02-20T10:42:11;99034.41;;;18.25;39.73
59106;BME280;44891;50.204;8.132;2023-02-20T10:46:16;99031.31;;;18.97;39.48
59106;BME280;44891;50.204;8.132;2023-02-20T10:50:21;99028.66;;;18.92;38.34
59106;BME280;44891;50.204;8.132;2023-02-20T10:54:24;99025.94;;;19.08;38.27
59106;BME280;44891;50.204;8.132;2023-02-20T10:58:30;99022.81;;;18.90;38.45
59106;BME280;44891;50.204;8.132;2023-02-20T11:02:35;99022.69;;;17.75;39.97
59106;BME280;44891;50.204;8.132;2023-02-20T11:06:39;99008.66;;;16.86;41.46
59106;BME280;44891;50.204;8.132;2023-02-20T11:10:43;99001.81;;;15.19;43.76
59106;BME280;44891;50.204;8.132;2023-02-20T11:14:45;98987.00;;;14.36;46.04
59106;BME280;44891;50.204;8.132;2023-02-20T11:18:48;98983.75;;;14.29;48.27
59106;BME280;44891;50.204;8.132;2023-02-20T11:22:53;98978.25;;;13.80;48.07
59106;BME280;44891;50.204;8.132;2023-02-20T11:26:58;98972.09;;;13.57;50.19
59106;BME280;44891;50.204;8.132;2023-02-20T11:31:02;98961.84;;;13.16;50.40
59106;BME280;44891;50.204;8.132;2023-02-20T11:39:34;98966.50;;;13.87;50.58
59106;BME280;44891;50.204;8.132;2023-02-20T11:43:36;98941.75;;;15.47;47.26
59106;BME280;44891;50.204;8.132;2023-02-20T11:47:38;98940.22;;;19.79;39.00
59106;BME280;44891;50.204;8.132;2023-02-20T11:51:40;98938.72;;;24.66;30.33
59106;BME280;44891;50.204;8.132;2023-02-20T11:55:44;98914.06;;;26.53;27.18
59106;BME280;44891;50.204;8.132;2023-02-20T11:59:46;98933.59;;;25.30;28.67
59106;BME280;44891;50.204;8.132;2023-02-20T12:03:53;98930.44;;;23.52;31.04
59106;BME280;44891;50.204;8.132;2023-02-20T12:07:56;98891.47;;;22.73;30.87
59106;BME280;44891;50.204;8.132;2023-02-20T12:12:00;98915.84;;;24.29;30.00
59106;BME280;44891;50.204;8.132;2023-02-20T12:16:04;98913.78;;;24.26;29.23
59106;BME280;44891;50.204;8.132;2023-02-20T12:20:08;98906.72;;;25.04;28.23
59106;BME280;44891;50.204;8.132;2023-02-20T12:24:13;98903.78;;;25.79;26.93
59106;BME280;44891;50.204;8.132;2023-02-20T12:28:19;98914.63;;;25.18;27.23
59106;BME280;44891;50.204;8.132;2023-02-20T12:32:29;98912.44;;;25.93;26.96
59106;BME280;44891;50.204;8.132;2023-02-20T12:36:35;98902.88;;;27.47;25.45
59106;BME280;44891;50.204;8.132;2023-02-20T12:40:40;98910.09;;;25.83;26.83
59106;BME280;44891;50.204;8.132;2023-02-20T12:44:51;98901.34;;;26.83;26.24
59106;BME280;44891;50.204;8.132;2023-02-20T12:49:01;98882.38;;;26.20;27.10
59106;BME280;44891;50.204;8.132;2023-02-20T12:53:14;98881.75;;;25.68;26.89
59106;BME280;44891;50.204;8.132;2023-02-20T12:57:21;98872.69;;;24.65;27.73
59106;BME280;44891;50.204;8.132;2023-02-20T13:01:28;98869.34;;;27.02;25.62
59106;BME280;44891;50.204;8.132;2023-02-20T13:05:30;98855.94;;;30.52;22.24
59106;BME280;44891;50.204;8.132;2023-02-20T13:09:34;98843.50;;;28.81;22.52
59106;BME280;44891;50.204;8.132;2023-02-20T13:13:39;98838.44;;;30.85;21.39
59106;BME280;44891;50.204;8.132;2023-02-20T13:17:46;98841.53;;;30.13;21.35
59106;BME280;44891;50.204;8.132;2023-02-20T13:21:51;98827.88;;;29.46;21.58
59106;BME280;44891;50.204;8.132;2023-02-20T13:25:55;98823.88;;;30.19;20.87
59106;BME280;44891;50.204;8.132;2023-02-20T13:29:57;98793.72;;;30.40;21.10
59106;BME280;44891;50.204;8.132;2023-02-20T13:38:19;98784.69;;;32.35;19.47
59106;BME280;44891;50.204;8.132;2023-02-20T13:42:25;98780.00;;;31.79;19.67
59106;BME280;44891;50.204;8.132;2023-02-20T13:46:26;98761.50;;;32.45;19.23
59106;BME280;44891;50.204;8.132;2023-02-20T13:50:30;98738.91;;;32.74;19.07
59106;BME280;44891;50.204;8.132;2023-02-20T13:54:34;98748.84;;;31.73;19.90
59106;BME280;44891;50.204;8.132;2023-02-20T13:58:36;98730.91;;;32.52;19.58
59106;BME280;44891;50.204;8.132;2023-02-20T14:02:39;98729.59;;;33.13;19.18
59106;BME280;44891;50.204;8.132;2023-02-20T14:06:47;98735.94;;;32.19;20.08
59106;BME280;44891;50.204;8.132;2023-02-20T14:10:51;98715.03;;;30.17;21.53
59106;BME280;44891;50.204;8.132;2023-02-20T14:14:53;98713.56;;;30.20;21.18
59106;BME280;44891;50.204;8.132;2023-02-20T14:18:56;98705.94;;;29.90;21.41
59106;BME280;44891;50.204;8.132;2023-02-20T14:23:05;98703.81;;;31.23;21.11
59106;BME280;44891;50.204;8.132;2023-02-20T14:31:25;98689.44;;;29.29;22.55
59106;BME280;44891;50.204;8.132;2023-02-20T14:35:30;98688.25;;;30.12;21.86
59106;BME280;44891;50.204;8.132;2023-02-20T14:39:42;98693.34;;;29.47;22.72
59106;BME280;44891;50.204;8.132;2023-02-20T14:43:54;98689.75;;;27.47;24.88
59106;BME280;44891;50.204;8.132;2023-02-20T14:47:58;98692.84;;;23.82;29.12
59106;BME280;44891;50.204;8.132;2023-02-20T14:52:14;98701.13;;;21.20;33.67
59106;BME280;44891;50.204;8.132;2023-02-20T14:56:17;98666.78;;;19.54;37.05
59106;BME280;44891;50.204;8.132;2023-02-20T15:00:24;98677.81;;;16.97;42.89
59106;BME280;44891;50.204;8.132;2023-02-20T15:04:28;98678.34;;;16.27;45.29
59106;BME280;44891;50.204;8.132;2023-02-20T15:08:30;98674.66;;;15.50;47.03
59106;BME280;44891;50.204;8.132;2023-02-20T15:12:35;98675.50;;;14.66;49.26
59106;BME280;44891;50.204;8.132;2023-02-20T15:16:38;98672.28;;;14.64;50.49
59106;BME280;44891;50.204;8.132;2023-02-20T15:20:43;98684.66;;;14.27;52.42
59106;BME280;44891;50.204;8.132;2023-02-20T15:24:45;98685.34;;;14.17;53.54
59106;BME280;44891;50.204;8.132;2023-02-20T15:28:47;98674.31;;;13.98;53.73
59106;BME280;44891;50.204;8.132;2023-02-20T15:32:50;98681.09;;;13.89;54.41
59106;BME280;44891;50.204;8.132;2023-02-20T15:36:53;98684.72;;;13.83;55.40
59106;BME280;44891;50.204;8.132;2023-02-20T15:40:55;98683.78;;;13.72;56.10
59106;BME280;44891;50.204;8.132;2023-02-20T15:44:57;98681.16;;;13.72;56.74
59106;BME280;44891;50.204;8.132;2023-02-20T15:48:59;98690.06;;;13.44;58.28
59106;BME280;44891;50.204;8.132;2023-02-20T15:53:03;98685.59;;;13.45;57.35
59106;BME280;44891;50.204;8.132;2023-02-20T15:57:08;98673.00;;;13.13;58.50
59106;BME280;44891;50.204;8.132;2023-02-20T16:01:10;98683.59;;;12.96;59.94
59106;BME280;44891;50.204;8.132;2023-02-20T16:05:12;98665.78;;;12.87;60.64
59106;BME280;44891;50.204;8.132;2023-02-20T16:09:15;98664.59;;;12.61;60.77
59106;BME280;44891;50.204;8.132;2023-02-20T16:13:20;98664.59;;;12.61;61.12
59106;BME280;44891;50.204;8.132;2023-02-20T16:17:24;98647.59;;;12.51;62.07
59106;BME280;44891;50.204;8.132;2023-02-20T16:21:27;98653.91;;;12.50;61.65
59106;BME280;44891;50.204;8.132;2023-02-20T16:25:31;98658.34;;;12.33;61.99
59106;BME280;44891;50.204;8.132;2023-02-20T16:29:34;98643.75;;;12.25;63.04
59106;BME280;44891;50.204;8.132;2023-02-20T16:33:36;98644.38;;;12.16;62.57
59106;BME280;44891;50.204;8.132;2023-02-20T16:37:38;98649.56;;;12.11;62.77
59106;BME280;44891;50.204;8.132;2023-02-20T16:41:41;98648.91;;;12.04;63.13
59106;BME280;44891;50.204;8.132;2023-02-20T16:45:44;98651.25;;;11.88;63.27
59106;BME280;44891;50.204;8.132;2023-02-20T16:49:46;98656.19;;;11.85;63.12
59106;BME280;44891;50.204;8.132;2023-02-20T16:53:48;98655.63;;;11.83;62.23
59106;BME280;44891;50.204;8.132;2023-02-20T16:57:52;98656.75;;;11.75;62.11
59106;BME280;44891;50.204;8.132;2023-02-20T17:01:54;98655.00;;;11.52;62.66
59106;BME280;44891;50.204;8.132;2023-02-20T17:05:56;98650.22;;;11.49;62.57
59106;BME280;44891;50.204;8.132;2023-02-20T17:09:59;98639.41;;;11.22;63.58
59106;BME280;44891;50.204;8.132;2023-02-20T17:14:02;98652.91;;;11.26;63.36
59106;BME280;44891;50.204;8.132;2023-02-20T17:18:04;98657.72;;;11.17;63.69
59106;BME280;44891;50.204;8.132;2023-02-20T17:22:06;98659.19;;;11.13;63.26
59106;BME280;44891;50.204;8.132;2023-02-20T17:26:08;98672.22;;;11.08;62.71
59106;BME280;44891;50.204;8.132;2023-02-20T17:30:12;98667.75;;;11.08;62.74
59106;BME280;44891;50.204;8.132;2023-02-20T17:34:14;98676.00;;;11.00;62.77
59106;BME280;44891;50.204;8.132;2023-02-20T17:38:16;98674.06;;;11.07;62.67
59106;BME280;44891;50.204;8.132;2023-02-20T17:42:17;98680.44;;;10.88;63.38
59106;BME280;44891;50.204;8.132;2023-02-20T17:46:21;98680.47;;;10.76;63.55
59106;BME280;44891;50.204;8.132;2023-02-20T17:50:22;98690.63;;;10.73;63.70
59106;BME280;44891;50.204;8.132;2023-02-20T17:54:24;98697.34;;;10.57;64.78
59106;BME280;44891;50.204;8.132;2023-02-20T17:58:26;98701.44;;;10.53;65.04
59106;BME280;44891;50.204;8.132;2023-02-20T18:02:30;98696.06;;;10.48;65.37
59106;BME280;44891;50.204;8.132;2023-02-20T18:06:31;98695.59;;;10.39;65.80
59106;BME280;44891;50.204;8.132;2023-02-20T18:10:33;98707.41;;;10.30;66.12
59106;BME280;44891;50.204;8.132;2023-02-20T18:14:35;98698.25;;;10.21;67.00
59106;BME280;44891;50.204;8.132;2023-02-20T18:18:38;98704.06;;;9.93;67.46
59106;BME280;44891;50.204;8.132;2023-02-20T18:22:41;98715.53;;;9.80;68.86
59106;BME280;44891;50.204;8.132;2023-02-20T18:26:43;98712.75;;;9.75;69.03
59106;BME280;44891;50.204;8.132;2023-02-20T18:30:45;98710.06;;;9.63;69.36
59106;BME280;44891;50.204;8.132;2023-02-20T18:34:48;98718.06;;;9.68;68.82
59106;BME280;44891;50.204;8.132;2023-02-20T18:38:50;98725.66;;;9.40;70.56
59106;BME280;44891;50.204;8.132;2023-02-20T18:42:52;98724.63;;;9.41;70.57
59106;BME280;44891;50.204;8.132;2023-02-20T18:46:54;98721.66;;;9.56;69.83
59106;BME280;44891;50.204;8.132;2023-02-20T18:50:58;98719.47;;;9.52;69.77
59106;BME280;44891;50.204;8.132;2023-02-20T18:55:00;98716.97;;;9.76;68.73
59106;BME280;44891;50.204;8.132;2023-02-20T18:59:02;98722.59;;;9.61;69.83
59106;BME280;44891;50.204;8.132;2023-02-20T19:03:04;98709.06;;;9.64;69.28
59106;BME280;44891;50.204;8.132;2023-02-20T19:07:07;98714.09;;;9.66;69.33
59106;BME280;44891;50.204;8.132;2023-02-20T19:11:09;98710.66;;;9.65;69.13
59106;BME280;44891;50.204;8.132;2023-02-20T19:15:11;98716.72;;;9.66;69.33
59106;BME280;44891;50.204;8.132;2023-02-20T19:19:14;98706.63;;;9.63;68.89
59106;BME280;44891;50.204;8.132;2023-02-20T19:23:17;98712.09;;;9.61;69.12
59106;BME280;44891;50.204;8.132;2023-02-20T19:27:19;98710.66;;;9.47;69.55
59106;BME280;44891;50.204;8.132;2023-02-20T19:31:21;98710.66;;;9.29;70.20
59106;BME280;44891;50.204;8.132;2023-02-20T19:35:23;98708.47;;;9.25;70.57
59106;BME280;44891;50.204;8.132;2023-02-20T19:39:26;98708.81;;;9.29;70.42
59106;BME280;44891;50.204;8.132;2023-02-20T19:43:28;98705.25;;;9.23;70.61
59106;BME280;44891;50.204;8.132;2023-02-20T19:47:30;98717.84;;;9.15;71.26
59106;BME280;44891;50.204;8.132;2023-02-20T19:51:31;98712.44;;;9.10;71.34
59106;BME280;44891;50.204;8.132;2023-02-20T19:55:35;98719.78;;;9.01;71.75
59106;BME280;44891;50.204;8.132;2023-02-20T19:59:36;98723.03;;;8.96;72.07
59106;BME280;44891;50.204;8.132;2023-02-20T20:03:39;98722.03;;;8.73;73.10
59106;BME280;44891;50.204;8.132;2023-02-20T20:07:41;98725.91;;;8.63;73.22
59106;BME280;44891;50.204;8.132;2023-02-20T20:11:44;98724.88;;;8.39;74.01
59106;BME280;44891;50.204;8.132;2023-02-20T20:15:46;98724.84;;;8.01;75.78
59106;BME280;44891;50.204;8.132;2023-02-20T20:19:48;98721.94;;;7.78;77.16
59106;BME280;44891;50.204;8.132;2023-02-20T20:23:51;98732.94;;;7.28;78.77
59106;BME280;44891;50.204;8.132;2023-02-20T20:27:54;98734.13;;;7.26;78.92
59106;BME280;44891;50.204;8.132;2023-02-20T20:31:57;98732.31;;;7.46;78.60
59106;BME280;44891;50.204;8.132;2023-02-20T20:35:59;98730.28;;;7.48;77.91
59106;BME280;44891;50.204;8.132;2023-02-20T20:40:00;98727.13;;;7.26;78.57
59106;BME280;44891;50.204;8.132;2023-02-20T20:44:04;98723.31;;;7.02;79.61
59106;BME280;44891;50.204;8.132;2023-02-20T20:48:06;98709.25;;;7.03;80.44
59106;BME280;44891;50.204;8.132;2023-02-20T20:52:08;98726.94;;;7.08;78.77
59106;BME280;44891;50.204;8.132;2023-02-20T20:56:10;98706.66;;;6.84;80.48
59106;BME280;44891;50.204;8.132;2023-02-20T21:00:19;98715.50;;;6.96;79.11
59106;BME280;44891;50.204;8.132;2023-02-20T21:04:21;98703.63;;;6.73;80.51
59106;BME280;44891;50.204;8.132;2023-02-20T21:08:23;98711.88;;;6.84;84.71
59106;BME280;44891;50.204;8.132;2023-02-20T21:12:25;98723.91;;;6.51;80.27
59106;BME280;44891;50.204;8.132;2023-02-20T21:16:28;98703.53;;;6.00;83.32
59106;BME280;44891;50.204;8.132;2023-02-20T21:20:30;98696.75;;;6.13;82.97
59106;BME280;44891;50.204;8.132;2023-02-20T21:24:33;98726.25;;;6.20;82.75
59106;BME280;44891;50.204;8.132;2023-02-20T21:28:35;98718.50;;;5.85;83.42
59106;BME280;44891;50.204;8.132;2023-02-20T21:32:38;98709.69;;;5.86;88.10
59106;BME280;44891;50.204;8.132;2023-02-20T21:36:40;98726.84;;;5.67;86.07
59106;BME280;44891;50.204;8.132;2023-02-20T21:40:43;98728.41;;;5.21;86.99
59106;BME280;44891;50.204;8.132;2023-02-20T21:44:45;98718.81;;;5.28;88.18
59106;BME280;44891;50.204;8.132;2023-02-20T21:48:48;98741.13;;;5.37;88.05
59106;BME280;44891;50.204;8.132;2023-02-20T21:52:50;98721.59;;;5.61;85.87